Time;durP1;ratioP1;P1;durP2;ratioP2;P2;SDS_P1;SDS_P2;PMS_P1;PMS_P2;Temp;Humidity;BMP_temperature;BMP_pressure;BME280_temperature;BME280_humidity;BME280_pressure;Samples;Min_cycle;Max_cycle;Signal;HPM_P1;HPM_P2
2022/10/07 00:12:09;;;;;;;34.83;23.42;;;;;;;28.28;73.32;98495.28;4868469;28;20056;-68
2022/10/07 00:15:05;;;;;;;32.90;22.88;;;;;;;28.16;74.05;98497.97;4842872;29;20137;-68
2022/10/07 00:17:42;;;;;;;32.97;24.23;;;;;;;27.95;74.97;98492.44;4853902;29;20577;-68
2022/10/07 00:20:35;;;;;;;27.10;21.85;;;;;;;28.24;73.65;98483.31;4853298;29;20121;-68
2022/10/07 00:23:24;;;;;;;30.27;23.60;;;;;;;27.97;74.68;98494.88;4854635;29;20140;-68
2022/10/07 00:26:20;;;;;;;40.30;24.42;;;;;;;27.89;74.80;98494.59;4853878;29;20140;-68
2022/10/07 00:29:11;;;;;;;29.15;22.75;;;;;;;27.92;74.69;98490.38;4853219;29;20053;-67
2022/10/07 00:31:59;;;;;;;31.77;24.20;;;;;;;27.85;74.80;98490.84;4852340;29;20121;-68
2022/10/07 00:34:42;;;;;;;34.90;24.25;;;;;;;27.91;74.79;98503.31;4870941;29;20394;-68
2022/10/07 00:37:30;;;;;;;34.03;24.05;;;;;;;27.85;74.49;98499.13;4856204;29;20045;-68
2022/10/07 00:40:13;;;;;;;33.55;25.35;;;;;;;27.84;74.54;98507.72;4856955;29;20057;-68
2022/10/07 00:43:33;;;;;;;33.40;24.63;;;;;;;27.87;74.35;98496.84;4856146;29;20431;-67
2022/10/07 00:46:34;;;;;;;34.60;23.50;;;;;;;27.92;73.87;98506.91;4871277;29;20050;-68
2022/10/07 00:49:28;;;;;;;37.22;25.25;;;;;;;27.85;73.83;98510.16;4856835;29;20069;-68
2022/10/07 00:52:19;;;;;;;39.30;26.58;;;;;;;27.91;73.57;98499.78;4871218;29;20094;-67
2022/10/07 00:55:18;;;;;;;39.20;27.70;;;;;;;27.89;73.43;98497.34;4854539;29;20065;-68
2022/10/07 00:57:59;;;;;;;41.38;28.92;;;;;;;27.89;73.21;98502.84;4856697;29;20062;-68
2022/10/07 01:00:47;;;;;;;49.25;32.92;;;;;;;27.64;74.17;98503.78;4856931;29;20795;-67
2022/10/07 01:03:32;;;;;;;52.63;32.97;;;;;;;27.75;73.45;98509.75;4856506;29;20763;-68
2022/10/07 01:06:22;;;;;;;52.25;33.92;;;;;;;28.00;72.70;98511.56;4851832;29;20066;-68
2022/10/07 01:09:05;;;;;;;60.05;34.25;;;;;;;27.94;72.45;98512.09;4857494;29;20057;-67
2022/10/07 01:12:29;;;;;;;52.63;33.58;;;;;;;28.01;72.62;98506.84;4855433;29;20140;-67
2022/10/07 01:15:46;;;;;;;54.90;31.30;;;;;;;27.90;72.92;98523.00;4856062;29;20065;-67
2022/10/07 01:18:52;;;;;;;45.25;30.73;;;;;;;28.10;71.87;98521.38;4853501;29;20804;-67
2022/10/07 01:21:37;;;;;;;42.72;27.17;;;;;;;28.10;71.73;98522.19;4856353;29;20583;-67
2022/10/07 01:25:00;;;;;;;43.33;26.98;;;;;;;28.00;72.19;98528.09;4868184;29;20513;-70
2022/10/07 01:27:38;;;;;;;42.08;24.38;;;;;;;28.11;71.85;98531.28;4870580;29;20049;-68
2022/10/07 01:30:30;;;;;;;33.72;23.77;;;;;;;28.02;71.98;98536.06;4870524;29;20053;-69
2022/10/07 01:33:20;;;;;;;32.30;23.15;;;;;;;27.98;72.45;98546.16;4870191;29;20065;-69
2022/10/07 01:36:23;;;;;;;34.00;22.60;;;;;;;28.06;71.66;98542.50;4870365;29;20464;-69
2022/10/07 01:39:02;;;;;;;34.88;23.40;;;;;;;28.20;71.41;98553.28;4855089;29;20057;-68
2022/10/07 01:42:00;;;;;;;38.97;23.38;;;;;;;28.16;71.45;98547.63;4868014;29;20122;-68
2022/10/07 01:44:37;;;;;;;36.63;24.30;;;;;;;28.29;70.97;98556.81;4862015;29;20109;-68
2022/10/07 01:47:27;;;;;;;38.20;25.40;;;;;;;28.31;71.52;98560.84;4847066;29;20351;-69
2022/10/07 01:50:21;;;;;;;40.40;27.73;;;;;;;28.48;71.24;98570.16;4847850;29;20057;-69
2022/10/07 01:53:25;;;;;;;37.67;26.77;;;;;;;28.43;72.32;98562.06;4865791;29;20144;-69
2022/10/07 01:56:18;;;;;;;33.67;25.17;;;;;;;28.65;71.41;98564.50;4845757;29;20061;-68
2022/10/07 01:59:20;;;;;;;42.80;27.98;;;;;;;28.59;71.15;98571.38;4868041;29;20157;-69
2022/10/07 02:02:18;;;;;;;49.35;29.15;;;;;;;28.64;70.73;98575.88;4845380;29;20053;-69
2022/10/07 02:05:14;;;;;;;44.05;29.65;;;;;;;28.65;70.86;98583.84;4848640;29;20538;-68
2022/10/07 02:08:22;;;;;;;37.40;27.83;;;;;;;28.53;71.17;98586.56;4847036;29;20763;-68
2022/10/07 02:11:16;;;;;;;41.80;27.65;;;;;;;28.76;70.10;98591.72;4855094;29;20045;-67
2022/10/07 02:14:24;;;;;;;43.63;30.40;;;;;;;28.76;70.51;98594.47;4866404;28;20058;-68
2022/10/07 02:17:09;;;;;;;45.30;26.98;;;;;;;28.75;70.52;98595.63;4873260;29;20061;-69
2022/10/07 02:20:07;;;;;;;38.38;26.65;;;;;;;28.90;69.33;98595.00;4872616;29;20132;-68
2022/10/07 02:22:45;;;;;;;39.78;28.20;;;;;;;28.95;69.78;98602.25;4874093;29;20069;-68
2022/10/07 02:25:40;;;;;;;43.70;27.30;;;;;;;28.98;71.07;98610.69;4872455;29;20112;-68
2022/10/07 02:28:31;;;;;;;37.60;27.15;;;;;;;29.04;70.01;98609.34;4869453;29;20057;-68
2022/10/07 02:31:31;;;;;;;37.28;26.55;;;;;;;28.94;70.81;98614.47;4841151;29;20072;-68
2022/10/07 02:34:09;;;;;;;40.10;27.87;;;;;;;28.38;71.10;98634.03;4854338;29;20803;-68
2022/10/07 02:37:10;;;;;;;37.65;26.42;;;;;;;29.02;70.91;98639.25;4855556;29;20060;-68
2022/10/07 02:40:03;;;;;;;39.40;26.17;;;;;;;29.25;70.26;98631.47;4855129;29;20049;-68
2022/10/07 02:42:59;;;;;;;43.97;27.75;;;;;;;29.17;69.36;98623.25;4853840;29;20053;-69
2022/10/07 02:46:01;;;;;;;45.65;29.23;;;;;;;29.08;69.67;98631.56;4855084;29;20057;-68
2022/10/07 02:49:15;;;;;;;77.03;44.40;;;;;;;28.83;70.53;98642.53;4853707;29;20132;-68
2022/10/07 02:52:02;;;;;;;103.47;56.58;;;;;;;28.88;71.44;98633.22;4877628;29;20052;-68
2022/10/07 02:54:58;;;;;;;94.20;54.13;;;;;;;29.30;70.29;98633.19;4871988;29;20060;-68
2022/10/07 02:57:45;;;;;;;73.15;45.38;;;;;;;29.23;70.19;98635.69;4887615;29;20132;-68
2022/10/07 03:00:37;;;;;;;;;;;;;;;29.42;68.87;98635.19;4870175;29;20053;-68
2022/10/07 03:03:22;;;;;;;85.93;45.60;;;;;;;28.87;70.29;98640.69;4888766;29;19931;-69
2022/10/07 03:06:18;;;;;;;51.80;34.03;;;;;;;29.19;69.84;98643.84;4872563;29;20080;-69
2022/10/07 03:09:01;;;;;;;57.00;32.95;;;;;;;29.33;69.20;98649.09;4887889;29;20049;-68
2022/10/07 03:11:57;;;;;;;43.15;30.13;;;;;;;29.32;70.13;98652.19;4887752;29;20049;-68
2022/10/07 03:14:48;;;;;;;39.70;30.08;;;;;;;29.20;70.69;98666.78;4879667;29;20510;-68
2022/10/07 03:17:45;;;;;;;41.72;30.23;;;;;;;29.27;70.85;98662.31;4853313;29;20137;-68
2022/10/07 03:20:21;;;;;;;41.35;31.02;;;;;;;29.12;71.18;98660.16;4866972;29;20053;-68
2022/10/07 03:23:16;;;;;;;43.72;30.30;;;;;;;29.39;70.43;98664.31;4871774;29;20092;-69
2022/10/07 03:25:54;;;;;;;38.47;29.65;;;;;;;28.93;71.08;98660.63;4887604;29;20471;-69
2022/10/07 03:28:49;;;;;;;42.17;30.45;;;;;;;29.18;70.34;98671.84;4872741;29;20056;-68
2022/10/07 03:31:26;;;;;;;42.83;31.58;;;;;;;29.33;70.20;98671.22;4871357;29;20128;-68
2022/10/07 03:34:14;;;;;;;43.03;30.38;;;;;;;29.08;70.72;98681.31;4850376;29;20097;-69
2022/10/07 03:36:57;;;;;;;49.00;28.92;;;;;;;29.01;71.06;98684.63;4867582;29;20049;-69
2022/10/07 03:39:52;;;;;;;42.70;27.45;;;;;;;29.17;70.63;98689.56;4852478;29;20046;-69
2022/10/07 03:42:28;;;;;;;51.08;29.38;;;;;;;29.24;70.55;98689.84;4851782;29;20061;-69
2022/10/07 03:45:23;;;;;;;44.08;28.85;;;;;;;29.00;70.86;98685.75;4853947;29;20082;-69
2022/10/07 03:47:59;;;;;;;38.40;28.88;;;;;;;29.05;70.64;98693.84;4852492;29;20729;-69
2022/10/07 03:50:54;;;;;;;39.72;28.17;;;;;;;29.50;69.26;98688.75;4885534;29;20058;-69
2022/10/07 03:53:46;;;;;;;46.42;26.73;;;;;;;29.48;69.10;98678.88;4876126;29;20551;-70
2022/10/07 03:56:37;;;;;;;40.70;27.00;;;;;;;29.64;69.15;98678.22;4834113;29;20050;-69
2022/10/07 03:59:28;;;;;;;36.90;26.85;;;;;;;29.47;68.73;98680.00;4856200;29;20927;-70
2022/10/07 04:02:17;;;;;;;40.60;27.35;;;;;;;29.71;69.05;98683.97;4849119;29;20149;-69
2022/10/07 04:05:07;;;;;;;43.35;28.88;;;;;;;29.24;69.61;98682.34;4857493;29;20054;-69
2022/10/07 04:07:51;;;;;;;40.97;27.98;;;;;;;29.60;68.35;98680.06;4849259;29;20073;-69
2022/10/07 04:10:41;;;;;;;42.40;26.77;;;;;;;29.55;68.82;98683.03;4839222;29;20054;-69
2022/10/07 04:13:30;;;;;;;40.38;28.13;;;;;;;30.16;67.94;98679.59;4847119;29;20056;-69
2022/10/07 04:16:21;;;;;;;40.25;28.85;;;;;;;30.20;67.26;98680.53;4859049;29;20092;-69
2022/10/07 04:19:04;;;;;;;46.03;30.55;;;;;;;30.56;65.55;98678.94;4879408;29;20051;-69
2022/10/07 04:21:59;;;;;;;49.20;31.48;;;;;;;30.37;66.30;98685.84;4862027;29;20739;-70
2022/10/07 04:24:42;;;;;;;52.00;32.63;;;;;;;30.13;66.25;98689.38;4893892;29;20060;-69
2022/10/07 04:27:39;;;;;;;48.08;31.50;;;;;;;30.38;64.35;98697.72;4889655;29;20117;-69
2022/10/07 04:30:37;;;;;;;53.42;32.22;;;;;;;30.37;64.90;98687.81;4875673;29;20124;-69
2022/10/07 04:33:30;;;;;;;50.73;33.43;;;;;;;30.96;64.54;98694.81;4858319;29;20112;-69
2022/10/07 04:36:14;;;;;;;48.60;32.58;;;;;;;30.55;63.64;98686.41;4875449;29;20303;-68
2022/10/07 04:39:15;;;;;;;46.00;32.65;;;;;;;30.82;63.19;98684.88;4874199;29;20115;-68
2022/10/07 04:42:02;;;;;;;59.45;32.80;;;;;;;30.96;62.77;98689.28;4890181;29;20045;-68
2022/10/07 04:44:57;;;;;;;56.65;32.63;;;;;;;31.16;63.46;98688.25;4874411;29;20489;-69
2022/10/07 04:47:34;;;;;;;107.90;36.90;;;;;;;30.89;62.94;98689.00;4892865;29;20057;-69
2022/10/07 04:50:24;;;;;;;53.63;33.33;;;;;;;31.19;62.16;98687.56;4889904;29;20057;-68
2022/10/07 04:53:07;;;;;;;54.22;34.47;;;;;;;31.13;61.84;98694.53;4892848;29;20221;-69
2022/10/07 04:55:57;;;;;;;52.17;33.95;;;;;;;31.48;60.51;98688.41;4868630;29;20630;-68
2022/10/07 04:58:42;;;;;;;49.97;33.83;;;;;;;31.82;60.29;98691.69;4881258;29;20512;-68
2022/10/07 05:01:39;;;;;;;55.72;33.80;;;;;;;31.69;60.26;98684.59;4896299;29;20071;-69
2022/10/07 05:04:14;;;;;;;59.67;35.13;;;;;;;31.57;59.87;98696.56;4891157;29;20060;-69
2022/10/07 05:07:12;;;;;;;46.20;32.70;;;;;;;32.28;59.36;98683.75;4888922;29;20063;-70
2022/10/07 05:09:48;;;;;;;49.30;33.80;;;;;;;32.04;58.76;98676.41;4872827;29;20073;-69
2022/10/07 05:12:43;;;;;;;58.80;34.40;;;;;;;31.34;60.59;98682.44;4888898;29;20049;-68
2022/10/07 05:15:25;;;;;;;51.42;33.47;;;;;;;31.42;61.53;98681.47;4877076;28;20312;-68
2022/10/07 05:18:15;;;;;;;50.25;32.92;;;;;;;31.61;62.04;98675.28;4854995;29;20137;-69
2022/10/07 05:20:57;;;;;;;54.00;34.45;;;;;;;31.86;61.92;98664.84;4860429;29;20156;-68
2022/10/07 05:23:51;;;;;;;70.45;40.15;;;;;;;31.77;62.64;98670.53;4855781;29;20045;-68
2022/10/07 05:26:48;;;;;;;71.35;45.95;;;;;;;32.18;61.89;98665.66;4873804;29;20064;-67
2022/10/07 05:29:24;;;;;;;77.40;50.13;;;;;;;31.96;60.14;98664.28;4867629;29;20060;-69
2022/10/07 05:32:21;;;;;;;86.22;55.08;;;;;;;32.15;60.49;98662.78;4854746;29;20049;-69
2022/10/07 05:34:57;;;;;;;101.70;58.97;;;;;;;31.88;61.86;98656.16;4862646;29;20049;-68
2022/10/07 05:37:59;;;;;;;108.25;61.80;;;;;;;32.47;60.93;98655.22;4854977;29;20064;-68
2022/10/07 05:40:34;;;;;;;;;;;;;;;32.77;60.58;98654.72;4844736;29;20125;-69
2022/10/07 05:43:30;;;;;;;102.75;60.25;;;;;;;32.17;60.66;98652.94;4837545;29;19959;-68
2022/10/07 05:46:14;;;;;;;108.25;65.07;;;;;;;32.10;62.58;98650.00;4857722;29;20049;-68
2022/10/07 05:49:05;;;;;;;102.75;66.18;;;;;;;32.23;60.62;98647.13;4888335;29;20347;-70
2022/10/07 05:51:48;;;;;;;113.05;66.97;;;;;;;32.11;59.81;98643.28;4878766;29;20054;-68
2022/10/07 05:54:45;;;;;;;116.10;68.20;;;;;;;32.19;61.24;98645.03;4844823;29;20045;-68
2022/10/07 05:57:21;;;;;;;124.05;71.68;;;;;;;31.96;61.02;98647.63;4861573;29;20053;-68
2022/10/07 06:00:19;;;;;;;118.40;70.07;;;;;;;32.06;60.91;98640.75;4876730;29;20061;-68
2022/10/07 06:02:55;;;;;;;124.32;72.15;;;;;;;32.43;60.90;98628.53;4860284;29;20448;-68
2022/10/07 06:05:51;;;;;;;138.55;75.15;;;;;;;32.12;60.75;98633.78;4874200;29;20064;-68
2022/10/07 06:08:28;;;;;;;125.25;74.75;;;;;;;32.50;60.23;98621.19;4869564;29;20064;-69
2022/10/07 06:14:31;;;;;;;142.93;76.30;;;;;;;31.96;60.30;98619.06;4875723;29;20067;-70
2022/10/07 06:17:20;;;;;;;125.70;72.13;;;;;;;32.21;60.34;98614.16;4865463;29;20052;-70
2022/10/07 06:20:13;;;;;;;121.75;71.80;;;;;;;31.74;61.18;98618.56;4856308;29;20081;-69
2022/10/07 06:22:57;;;;;;;119.93;71.35;;;;;;;32.46;59.16;98606.38;4875364;29;20052;-68
2022/10/07 06:25:47;;;;;;;135.88;72.80;;;;;;;32.26;59.19;98607.53;4896057;29;20052;-68
2022/10/07 06:28:38;;;;;;;129.30;75.82;;;;;;;32.29;58.77;98599.28;4879824;29;20353;-69
2022/10/07 06:31:31;;;;;;;139.55;77.72;;;;;;;32.57;58.65;98601.91;4876802;29;20143;-69
2022/10/07 06:34:12;;;;;;;114.47;68.60;;;;;;;32.21;57.87;98591.13;4892120;29;20135;-69
2022/10/07 06:37:03;;;;;;;131.73;71.35;;;;;;;32.14;58.07;98592.59;4891156;29;20072;-72
2022/10/07 06:39:45;;;;;;;120.05;65.75;;;;;;;32.43;59.14;98589.63;4874880;29;20052;-71
2022/10/07 06:42:40;;;;;;;115.60;68.15;;;;;;;31.96;58.48;98581.03;4874962;29;20061;-71
2022/10/07 06:45:44;;;;;;;111.82;64.60;;;;;;;32.14;59.52;98589.81;4890881;29;20044;-70
2022/10/07 06:48:35;;;;;;;114.00;66.13;;;;;;;32.03;57.78;98577.66;4910717;29;20060;-70
2022/10/07 06:51:19;;;;;;;128.40;71.03;;;;;;;32.21;57.35;98577.25;4899727;29;20053;-71
2022/10/07 06:54:07;;;;;;;121.15;67.18;;;;;;;32.22;57.39;98574.13;4890682;29;20060;-71
2022/10/07 06:56:50;;;;;;;106.07;65.80;;;;;;;31.98;58.80;98564.00;4891212;29;20049;-71
2022/10/07 06:59:39;;;;;;;111.47;62.40;;;;;;;32.28;58.92;98558.78;4874257;29;20056;-71
2022/10/07 07:02:24;;;;;;;117.53;66.20;;;;;;;32.30;57.42;98550.09;4879860;29;20137;-71
2022/10/07 07:05:14;;;;;;;108.43;66.43;;;;;;;32.84;58.38;98556.78;4874847;29;20539;-70
2022/10/07 07:07:57;;;;;;;105.22;63.30;;;;;;;33.04;58.98;98554.78;4875356;29;20045;-72
2022/10/07 07:10:48;;;;;;;116.18;65.10;;;;;;;32.66;56.42;98542.56;4874743;29;20049;-69
2022/10/07 07:13:38;;;;;;;109.60;64.65;;;;;;;32.84;56.29;98545.69;4873013;29;20348;-69
2022/10/07 07:16:27;;;;;;;104.25;65.00;;;;;;;32.81;58.68;98543.63;4881641;29;20408;-71
2022/10/07 07:19:14;;;;;;;107.90;61.85;;;;;;;33.01;56.31;98538.84;4871644;29;20048;-72
2022/10/07 07:22:10;;;;;;;105.18;65.13;;;;;;;32.63;55.91;98524.63;4889665;29;20068;-72
2022/10/07 07:24:48;;;;;;;102.20;63.55;;;;;;;32.68;56.50;98518.78;4873235;29;20052;-73
2022/10/07 07:27:36;;;;;;;106.10;64.97;;;;;;;32.90;56.19;98521.97;4874405;29;20061;-72
2022/10/07 07:30:22;;;;;;;111.32;66.13;;;;;;;32.69;56.29;98519.56;4873565;29;20082;-73
2022/10/07 07:33:19;;;;;;;111.65;67.80;;;;;;;32.70;56.39;98518.41;4890895;29;20059;-74
2022/10/07 07:35:55;;;;;;;109.97;64.47;;;;;;;33.10;56.03;98511.63;4887955;29;20055;-73
2022/10/07 07:39:07;;;;;;;110.72;64.63;;;;;;;32.60;55.01;98500.38;4870752;29;20500;-73
2022/10/07 07:41:49;;;;;;;108.38;63.50;;;;;;;32.84;55.28;98501.22;4870117;29;20073;-73
2022/10/07 07:44:39;;;;;;;96.82;62.60;;;;;;;32.76;56.05;98494.72;4873720;29;20052;-73
2022/10/07 07:47:24;;;;;;;103.60;62.20;;;;;;;32.81;56.23;98488.88;4881152;29;20059;-71
2022/10/07 07:50:15;;;;;;;96.45;61.42;;;;;;;32.79;56.08;98482.88;4872868;29;20116;-73
2022/10/07 07:53:04;;;;;;;97.82;63.25;;;;;;;32.84;56.03;98485.31;4867145;29;20572;-73
2022/10/07 07:55:56;;;;;;;103.40;63.03;;;;;;;33.17;55.06;98478.41;4867622;29;20056;-74
2022/10/07 07:58:46;;;;;;;95.53;64.45;;;;;;;33.14;55.39;98479.94;4867306;29;20051;-74
2022/10/07 08:01:34;;;;;;;95.63;62.10;;;;;;;33.01;55.28;98474.91;4865641;29;20056;-73
2022/10/07 08:04:22;;;;;;;113.53;66.15;;;;;;;32.89;54.86;98482.25;4878964;29;20825;-73
2022/10/07 08:07:13;;;;;;;99.32;62.42;;;;;;;33.08;55.22;98469.50;4866200;29;20625;-72
2022/10/07 08:10:01;;;;;;;93.93;62.28;;;;;;;33.18;55.32;98460.56;4852485;29;20064;-73
2022/10/07 08:12:45;;;;;;;106.88;62.22;;;;;;;33.36;53.70;98458.06;4838521;29;20149;-73
2022/10/07 08:15:40;;;;;;;103.45;62.40;;;;;;;33.27;53.35;98452.75;4834735;29;20093;-73
2022/10/07 08:18:16;;;;;;;96.97;60.53;;;;;;;33.57;53.50;98440.91;4850650;29;20054;-72
2022/10/07 08:21:06;;;;;;;99.53;60.88;;;;;;;33.57;53.79;98440.91;4833067;29;20054;-73
2022/10/07 08:23:49;;;;;;;100.07;60.40;;;;;;;33.73;54.82;98441.56;4869734;29;20369;-73
2022/10/07 08:26:41;;;;;;;99.35;61.42;;;;;;;33.42;53.13;98436.28;4869170;29;20672;-72
2022/10/07 08:29:24;;;;;;;95.30;58.78;;;;;;;33.26;53.21;98431.69;4885171;29;20049;-72
2022/10/07 08:32:12;;;;;;;89.00;56.35;;;;;;;33.83;53.09;98428.19;4884922;29;20049;-73
2022/10/07 08:34:54;;;;;;;76.75;52.42;;;;;;;33.42;49.33;98420.41;4859675;29;20065;-72
2022/10/07 08:37:50;;;;;;;86.13;54.58;;;;;;;33.78;51.31;98414.59;4853115;29;20053;-72
2022/10/07 08:40:26;;;;;;;98.65;57.88;;;;;;;33.37;52.27;98417.16;4853069;29;20049;-72
2022/10/07 08:43:22;;;;;;;84.65;56.90;;;;;;;33.54;53.34;98405.50;4852982;29;20572;-71
2022/10/07 08:45:59;;;;;;;77.15;54.45;;;;;;;33.62;52.71;98400.81;4854400;29;20049;-71
2022/10/07 08:49:24;;;;;;;89.40;54.65;;;;;;;33.49;52.75;98395.47;4839100;29;20053;-71
2022/10/07 08:52:38;;;;;;;80.75;55.50;;;;;;;33.51;52.38;98395.09;4851402;29;20061;-71
2022/10/07 08:55:43;;;;;;;90.05;56.58;;;;;;;33.58;51.44;98400.78;4854074;29;20393;-73
2022/10/07 08:58:45;;;;;;;82.07;54.78;;;;;;;33.74;52.04;98393.09;4870499;29;20054;-72
2022/10/07 09:02:13;;;;;;;77.93;54.50;;;;;;;33.71;52.01;98388.28;4850787;29;20057;-71
2022/10/07 09:05:18;;;;;;;83.03;56.78;;;;;;;33.50;52.59;98376.81;4853603;29;20053;-71
2022/10/07 09:08:28;;;;;;;81.47;54.03;;;;;;;33.67;52.16;98378.25;4862869;29;20057;-72
2022/10/07 09:11:24;;;;;;;79.60;53.53;;;;;;;33.78;51.54;98370.06;4847264;29;20101;-72
2022/10/07 09:14:30;;;;;;;85.35;57.92;;;;;;;33.18;50.75;98368.78;4870576;29;20087;-72
2022/10/07 09:17:48;;;;;;;87.32;55.38;;;;;;;33.58;53.00;98364.59;4886504;29;20056;-71
2022/10/07 09:20:33;;;;;;;82.15;55.75;;;;;;;33.67;52.71;98359.59;4886333;29;20613;-71
2022/10/07 09:23:28;;;;;;;85.90;53.53;;;;;;;33.58;51.91;98364.59;4888372;29;20829;-72
2022/10/07 09:26:18;;;;;;;79.22;54.33;;;;;;;33.53;52.30;98360.19;4889130;29;20773;-72
2022/10/07 09:29:09;;;;;;;82.65;53.72;;;;;;;33.84;49.68;98360.19;4893506;29;20064;-73
2022/10/07 09:31:59;;;;;;;83.78;54.92;;;;;;;33.63;50.47;98361.53;4893216;29;20425;-71
2022/10/07 09:34:53;;;;;;;84.72;51.78;;;;;;;33.67;50.22;98350.41;4888588;29;20060;-74
2022/10/07 09:37:29;;;;;;;88.82;54.70;;;;;;;33.41;50.71;98356.81;4869200;29;20076;-71
2022/10/07 09:40:36;;;;;;;82.75;52.75;;;;;;;33.66;53.07;98341.28;4881569;29;20663;-74
2022/10/07 09:43:12;;;;;;;73.97;51.17;;;;;;;33.65;51.35;98342.47;4884250;29;20553;-73
2022/10/07 09:46:09;;;;;;;81.57;53.00;;;;;;;33.30;51.37;98337.97;4870062;29;20078;-73
2022/10/07 09:48:54;;;;;;;82.50;54.17;;;;;;;33.61;51.38;98332.44;4899613;29;20140;-70
2022/10/07 09:52:03;;;;;;;78.80;54.17;;;;;;;33.34;51.11;98338.84;4899020;29;20456;-71
2022/10/07 09:54:46;;;;;;;75.13;49.30;;;;;;;33.36;50.89;98324.53;4900340;29;20048;-72
2022/10/07 09:57:41;;;;;;;73.05;46.92;;;;;;;33.21;50.94;98326.34;4896317;29;20139;-72
2022/10/07 10:00:24;;;;;;;76.78;46.42;;;;;;;33.17;49.60;98328.25;4890250;29;20147;-73
2022/10/07 10:03:20;;;;;;;57.80;42.20;;;;;;;33.45;51.54;98319.50;4901979;29;20472;-73
2022/10/07 10:06:01;;;;;;;68.40;45.05;;;;;;;33.11;52.60;98319.41;4878435;29;20146;-72
2022/10/07 10:09:01;;;;;;;74.18;48.13;;;;;;;32.98;59.28;98329.13;4902175;29;20555;-72
2022/10/07 10:11:37;;;;;;;64.40;46.58;;;;;;;32.56;52.87;98319.72;4901244;29;20068;-72
2022/10/07 10:14:40;;;;;;;67.10;45.95;;;;;;;33.25;53.39;98320.81;4888087;29;20057;-71
2022/10/07 10:17:35;;;;;;;66.18;45.50;;;;;;;33.23;53.87;98317.59;4869766;29;20156;-72
2022/10/07 10:20:45;;;;;;;67.50;45.60;;;;;;;33.28;54.28;98320.06;4863720;29;20054;-72
2022/10/07 10:23:37;;;;;;;65.43;46.28;;;;;;;33.08;51.90;98308.22;4859595;29;20083;-72
2022/10/07 10:26:43;;;;;;;70.03;45.63;;;;;;;33.09;52.47;98312.59;4863135;29;20112;-73
2022/10/07 10:29:43;;;;;;;72.10;47.63;;;;;;;33.11;51.99;98310.28;4851363;29;20053;-72
2022/10/07 10:32:50;;;;;;;66.25;45.60;;;;;;;32.96;55.07;98312.00;4849742;29;20057;-72
2022/10/07 10:35:42;;;;;;;67.78;46.50;;;;;;;33.02;52.55;98312.50;4864402;29;20616;-71
2022/10/07 10:38:38;;;;;;;68.13;45.63;;;;;;;33.07;53.39;98310.19;4864884;29;20509;-72
2022/10/07 10:41:44;;;;;;;66.07;45.50;;;;;;;33.07;52.91;98303.84;4865543;29;20101;-71
2022/10/07 10:44:41;;;;;;;68.53;45.35;;;;;;;33.09;52.68;98301.47;4876988;29;20053;-73
2022/10/07 10:47:44;;;;;;;58.47;43.08;;;;;;;33.15;53.48;98306.41;4863309;29;20059;-74
2022/10/07 10:50:44;;;;;;;61.58;42.92;;;;;;;32.88;53.02;98296.41;4875522;29;20093;-72
2022/10/07 10:54:01;;;;;;;60.97;42.33;;;;;;;32.59;52.51;98304.28;4864275;29;20064;-74
2022/10/07 10:57:00;;;;;;;60.60;41.63;;;;;;;32.99;51.84;98302.13;4863652;29;20064;-72
2022/10/07 11:00:14;;;;;;;58.08;42.10;;;;;;;32.87;54.59;98306.72;4861913;29;20121;-71
2022/10/07 11:03:26;;;;;;;66.50;43.95;;;;;;;32.76;57.72;98300.97;4861163;29;20053;-72
2022/10/07 11:06:18;;;;;;;67.82;43.40;;;;;;;32.82;56.98;98304.25;4858180;29;20396;-71
2022/10/07 11:09:08;;;;;;;63.38;41.78;;;;;;;32.79;54.99;98305.00;4849929;29;20406;-71
2022/10/07 11:11:49;;;;;;;;;;;;;;;32.85;53.97;98311.84;4847343;29;20056;-72
2022/10/07 11:14:53;;;;;;;55.15;38.22;;;;;;;32.62;52.14;98309.09;4875322;29;19991;-72
2022/10/07 11:17:36;;;;;;;54.15;38.38;;;;;;;32.80;51.96;98312.16;4881795;29;20060;-73
2022/10/07 11:20:47;;;;;;;54.70;38.95;;;;;;;32.68;56.11;98315.16;4900167;29;20164;-71
2022/10/07 11:24:00;;;;;;;61.35;40.40;;;;;;;32.83;54.51;98307.81;4893673;29;20064;-72
2022/10/07 11:27:02;;;;;;;59.55;42.88;;;;;;;32.86;52.73;98318.22;4891796;29;20365;-74
2022/10/07 11:30:00;;;;;;;61.15;41.08;;;;;;;32.86;52.95;98321.78;4876387;29;20049;-72
2022/10/07 11:32:56;;;;;;;53.03;40.38;;;;;;;32.86;54.45;98319.00;4898384;29;20051;-74
2022/10/07 11:36:10;;;;;;;64.20;42.50;;;;;;;32.66;55.88;98323.06;4897661;29;20439;-73
2022/10/07 11:38:59;;;;;;;56.58;41.72;;;;;;;32.45;56.42;98318.69;4889070;29;20054;-70
2022/10/07 11:42:02;;;;;;;61.60;42.83;;;;;;;32.38;57.70;98318.56;4892049;29;20051;-71
2022/10/07 11:45:05;;;;;;;67.20;43.10;;;;;;;32.42;56.65;98318.63;4862850;29;20140;-70
2022/10/07 11:48:00;;;;;;;62.03;42.47;;;;;;;32.20;55.28;98318.25;4898316;29;20143;-69
2022/10/07 11:50:58;;;;;;;62.53;42.47;;;;;;;32.37;56.22;98323.31;4895230;29;20096;-72
2022/10/07 11:53:47;;;;;;;64.55;41.75;;;;;;;32.34;56.52;98326.81;4897249;29;20068;-69
2022/10/07 11:56:48;;;;;;;66.22;42.58;;;;;;;32.30;56.19;98323.19;4881601;29;20053;-68
2022/10/07 11:59:47;;;;;;;64.28;42.15;;;;;;;32.10;56.22;98325.19;4883560;29;20667;-69
2022/10/07 12:02:47;;;;;;;58.58;41.17;;;;;;;32.10;56.78;98325.19;4864763;29;20394;-71
2022/10/07 12:05:40;;;;;;;66.47;39.92;;;;;;;32.13;57.35;98324.44;4866408;29;20053;-73
2022/10/07 12:08:43;;;;;;;75.97;42.95;;;;;;;31.96;58.45;98325.66;4880833;29;20080;-73
2022/10/07 12:11:37;;;;;;;66.10;41.60;;;;;;;31.94;57.34;98322.47;4883984;29;20080;-72
2022/10/07 12:14:39;;;;;;;62.15;39.95;;;;;;;32.05;54.49;98328.25;4885091;29;20411;-73
2022/10/07 12:17:34;;;;;;;58.10;39.53;;;;;;;32.04;57.07;98321.09;4881367;29;20151;-68
2022/10/07 12:20:48;;;;;;;70.68;39.85;;;;;;;31.85;57.57;98326.63;4884293;29;20477;-71
2022/10/07 12:23:46;;;;;;;66.55;42.85;;;;;;;31.93;58.13;98320.03;4887646;29;20052;-68
2022/10/07 12:26:30;;;;;;;61.55;41.38;;;;;;;31.82;60.75;98327.38;4894754;29;20757;-69
2022/10/07 12:29:37;;;;;;;62.50;44.53;;;;;;;31.83;58.99;98326.19;4896577;29;20056;-71
2022/10/07 12:32:40;;;;;;;75.57;45.03;;;;;;;31.77;59.91;98322.91;4898895;29;20053;-71
2022/10/07 12:35:37;;;;;;;73.20;46.13;;;;;;;31.69;61.33;98333.06;4893576;29;20572;-72
2022/10/07 12:38:24;;;;;;;67.03;44.95;;;;;;;31.68;60.99;98334.22;4901137;29;20049;-71
2022/10/07 12:41:27;;;;;;;65.35;46.22;;;;;;;31.55;60.33;98336.34;4894762;29;20631;-71
2022/10/07 12:44:25;;;;;;;86.35;47.03;;;;;;;31.48;61.28;98338.94;4876382;29;20421;-69
2022/10/07 12:47:39;;;;;;;78.45;44.78;;;;;;;31.49;61.29;98339.75;4883715;29;20144;-72
2022/10/07 12:50:19;;;;;;;70.45;43.35;;;;;;;31.44;61.77;98340.00;4876023;29;20141;-69
2022/10/07 12:53:18;;;;;;;73.03;45.28;;;;;;;31.35;61.92;98346.53;4892320;29;20056;-70
2022/10/07 12:55:55;;;;;;;78.13;45.20;;;;;;;31.13;60.79;98350.00;4885353;29;20063;-72
2022/10/07 13:02:35;;;;;;;69.85;44.78;;;;;;;31.42;60.39;98349.47;4896170;29;20045;-72
2022/10/07 13:05:53;;;;;;;60.72;44.05;;;;;;;31.35;60.30;98354.06;4889919;29;20156;-70
2022/10/07 13:09:01;;;;;;;57.40;43.53;;;;;;;31.12;61.61;98353.94;4904553;29;20055;-72
2022/10/07 13:12:12;;;;;;;65.00;41.10;;;;;;;31.15;62.54;98354.00;4885218;29;20701;-71
2022/10/07 13:15:30;;;;;;;55.75;35.83;;;;;;;31.01;62.76;98351.72;4877385;29;20059;-71
2022/10/07 13:18:33;;;;;;;45.67;32.50;;;;;;;30.99;63.15;98356.00;4871237;29;20063;-71
2022/10/07 13:21:20;;;;;;;41.05;31.42;;;;;;;30.76;63.97;98353.03;4882073;29;20059;-71
2022/10/07 13:24:21;;;;;;;46.40;31.00;;;;;;;30.95;63.94;98355.09;4894286;29;20384;-71
2022/10/07 13:26:56;;;;;;;44.13;31.30;;;;;;;30.99;63.30;98354.03;4884102;29;20071;-73
2022/10/07 13:29:53;;;;;;;43.35;30.30;;;;;;;30.86;64.02;98357.22;4901430;29;20052;-71
2022/10/07 13:32:31;;;;;;;43.97;32.47;;;;;;;30.67;63.84;98361.53;4901554;29;20056;-68